BTI7EG EDDF-EVRA
Flight info
| Callsign | BTI7EG |
|---|---|
| Flight time | N/A |
| Altitude | 31000 |
| Route | TOBAK8M/25C TOBAK N858 FEDZA Y172 ETIDI/N0446F370 Y172 SISMI DCT ASMIG DCT RIMKO DCT FARCU DCT GORPI DCT ANFEV DCT DIPEB DCT NINTA DCT ADAXA DCT ORVIX |
| Aircraft | A319/M-SDE3FGHIRWY/LB1 |
Departure
| Time | 2026-05-05 08:13 |
|---|---|
| Airport | Frankfurt Main Airport (EDDF) |
Arrival
| Time | N/A |
|---|---|
| Airport | Riga International Airport (EVRA) |
| Time | Latitude | Longitude | Altitude | Speed | Heading |
|---|---|---|---|---|---|
| 2026-05-05 07:43 | 50.04783 | 8.56774 | 362 ft | 0 kts | 118° |
| 2026-05-05 08:00 | 50.04783 | 8.56773 | 356 ft | 1 kts | 118° |
| 2026-05-05 08:00 | 50.04793 | 8.56739 | 362 ft | 4 kts | 104° |
| 2026-05-05 08:00 | 50.04799 | 8.56699 | 362 ft | 4 kts | 118° |
| 2026-05-05 08:01 | 50.04807 | 8.56684 | 361 ft | 0 kts | 162° |
| 2026-05-05 08:04 | 50.04806 | 8.56684 | 356 ft | 0 kts | 162° |
| 2026-05-05 08:04 | 50.04804 | 8.56683 | 356 ft | 0 kts | 176° |
| 2026-05-05 08:04 | 50.04778 | 8.56673 | 356 ft | 5 kts | 200° |
| 2026-05-05 08:04 | 50.04746 | 8.56637 | 363 ft | 6 kts | 227° |
| 2026-05-05 08:05 | 50.04720 | 8.56582 | 362 ft | 7 kts | 233° |
| 2026-05-05 08:05 | 50.04690 | 8.56519 | 356 ft | 8 kts | 235° |
| 2026-05-05 08:05 | 50.04668 | 8.56440 | 362 ft | 8 kts | 249° |
| 2026-05-05 08:05 | 50.04646 | 8.56347 | 356 ft | 10 kts | 250° |
| 2026-05-05 08:06 | 50.04620 | 8.56240 | 357 ft | 11 kts | 249° |
| 2026-05-05 08:06 | 50.04592 | 8.56124 | 359 ft | 12 kts | 250° |
| 2026-05-05 08:06 | 50.04565 | 8.56009 | 358 ft | 9 kts | 248° |
| 2026-05-05 08:06 | 50.04514 | 8.55950 | 357 ft | 10 kts | 198° |
| 2026-05-05 08:07 | 50.04450 | 8.55920 | 357 ft | 10 kts | 197° |
| 2026-05-05 08:07 | 50.04379 | 8.55912 | 358 ft | 11 kts | 169° |
| 2026-05-05 08:07 | 50.04301 | 8.55954 | 355 ft | 11 kts | 160° |
| 2026-05-05 08:07 | 50.04242 | 8.55940 | 360 ft | 10 kts | 213° |
| 2026-05-05 08:08 | 50.04173 | 8.55926 | 352 ft | 12 kts | 163° |
| 2026-05-05 08:08 | 50.04099 | 8.55969 | 353 ft | 9 kts | 159° |
| 2026-05-05 08:08 | 50.04073 | 8.56055 | 351 ft | 10 kts | 81° |
| 2026-05-05 08:08 | 50.04098 | 8.56156 | 356 ft | 10 kts | 69° |
| 2026-05-05 08:09 | 50.04123 | 8.56262 | 354 ft | 11 kts | 69° |
| 2026-05-05 08:09 | 50.04149 | 8.56371 | 357 ft | 11 kts | 70° |
| 2026-05-05 08:09 | 50.04174 | 8.56476 | 360 ft | 10 kts | 70° |
| 2026-05-05 08:09 | 50.04199 | 8.56579 | 358 ft | 10 kts | 69° |
| 2026-05-05 08:10 | 50.04222 | 8.56677 | 364 ft | 10 kts | 70° |
| 2026-05-05 08:10 | 50.04249 | 8.56791 | 360 ft | 12 kts | 70° |
| 2026-05-05 08:10 | 50.04283 | 8.56932 | 359 ft | 16 kts | 69° |
| 2026-05-05 08:10 | 50.04322 | 8.57097 | 364 ft | 16 kts | 70° |
| 2026-05-05 08:11 | 50.04361 | 8.57261 | 363 ft | 16 kts | 70° |
| 2026-05-05 08:11 | 50.04402 | 8.57432 | 365 ft | 17 kts | 70° |
| 2026-05-05 08:11 | 50.04428 | 8.57558 | 365 ft | 7 kts | 88° |
| 2026-05-05 08:11 | 50.04418 | 8.57606 | 364 ft | 4 kts | 114° |
| 2026-05-05 08:12 | 50.04398 | 8.57644 | 365 ft | 6 kts | 141° |
| 2026-05-05 08:12 | 50.04357 | 8.57673 | 363 ft | 9 kts | 160° |
| 2026-05-05 08:12 | 50.04288 | 8.57700 | 364 ft | 10 kts | 191° |
| 2026-05-05 08:12 | 50.04228 | 8.57502 | 364 ft | 44 kts | 250° |
| 2026-05-05 08:13 | 50.04029 | 8.56664 | 359 ft | 118 kts | 250° |
| 2026-05-05 08:13 | 50.03673 | 8.55163 | 368 ft | 173 kts | 251° |
| 2026-05-05 08:13 | 50.03257 | 8.53405 | 1033 ft | 173 kts | 250° |
| 2026-05-05 08:13 | 50.02832 | 8.51660 | 1814 ft | 172 kts | 249° |
| 2026-05-05 08:14 | 50.02227 | 8.50055 | 2435 ft | 179 kts | 221° |
| 2026-05-05 08:14 | 50.01030 | 8.49261 | 2747 ft | 201 kts | 190° |
| 2026-05-05 08:14 | 49.99631 | 8.48785 | 3394 ft | 207 kts | 194° |
| 2026-05-05 08:14 | 49.98238 | 8.48166 | 4149 ft | 210 kts | 196° |
| 2026-05-05 08:15 | 49.96843 | 8.47511 | 5042 ft | 209 kts | 197° |
| 2026-05-05 08:15 | 49.95438 | 8.46847 | 5900 ft | 218 kts | 197° |
| 2026-05-05 08:15 | 49.93919 | 8.46127 | 6465 ft | 238 kts | 197° |
| 2026-05-05 08:15 | 49.92312 | 8.45354 | 7315 ft | 245 kts | 199° |
| 2026-05-05 08:16 | 49.90892 | 8.43881 | 8182 ft | 252 kts | 229° |
| 2026-05-05 08:16 | 49.90158 | 8.41409 | 9117 ft | 259 kts | 261° |
| 2026-05-05 08:16 | 49.90387 | 8.38623 | 10024 ft | 267 kts | 293° |
| 2026-05-05 08:16 | 49.91590 | 8.36429 | 10871 ft | 276 kts | 327° |